createdAt,value
2019-03-05T00:00:24.685Z,1.70
2019-03-05T00:02:55.507Z,1.90
2019-03-05T00:05:25.049Z,1.97
2019-03-05T00:07:55.831Z,2.10
2019-03-05T00:10:25.381Z,1.60
2019-03-05T00:12:54.960Z,1.90
2019-03-05T00:15:25.809Z,1.90
2019-03-05T00:17:55.383Z,2.00
2019-03-05T00:20:24.966Z,2.00
2019-03-05T00:22:54.504Z,2.20
2019-03-05T00:25:24.119Z,2.03
2019-03-05T00:27:58.476Z,2.07
2019-03-05T00:30:34.779Z,1.90
2019-03-05T00:33:12.422Z,2.00
2019-03-05T00:35:53.131Z,1.77
2019-03-05T00:38:38.400Z,2.20
2019-03-05T00:41:17.526Z,1.90
2019-03-05T00:43:58.374Z,1.80
2019-03-05T00:46:39.883Z,1.60
2019-03-05T00:49:21.364Z,1.70
2019-03-05T00:52:04.041Z,1.77
2019-03-05T00:54:43.834Z,1.53
2019-03-05T00:57:22.263Z,1.60
2019-03-05T01:00:04.456Z,1.53
2019-03-05T01:04:50.844Z,1.50
2019-03-05T01:07:20.370Z,1.47
2019-03-05T01:09:52.367Z,1.70
2019-03-05T01:12:23.011Z,1.60
2019-03-05T01:14:52.573Z,1.80
2019-03-05T01:17:22.115Z,1.77
2019-03-05T01:19:51.695Z,1.70
2019-03-05T01:22:21.258Z,1.30
2019-03-05T01:24:50.802Z,1.80
2019-03-05T01:27:20.331Z,1.30
2019-03-05T01:29:49.919Z,1.77
2019-03-05T01:32:26.601Z,1.50
2019-03-05T01:35:05.282Z,1.57
2019-03-05T01:37:34.799Z,1.97
2019-03-05T01:40:25.641Z,1.77
2019-03-05T01:42:56.438Z,1.60
2019-03-05T01:45:26.026Z,2.07
2019-03-05T01:47:55.576Z,1.90
2019-03-05T01:50:25.158Z,1.90
2019-03-05T01:52:54.742Z,1.90
2019-03-05T01:55:24.323Z,1.97
2019-03-05T01:57:53.922Z,2.30
2019-03-05T02:00:23.506Z,2.07
2019-03-05T02:02:53.021Z,2.00
2019-03-05T02:05:22.554Z,2.43
2019-03-05T02:07:52.090Z,2.20
2019-03-05T02:10:21.703Z,2.13
2019-03-05T02:12:51.230Z,2.70
2019-03-05T02:15:20.785Z,2.43
2019-03-05T02:17:50.328Z,2.43
2019-03-05T02:20:21.896Z,2.50
2019-03-05T02:23:13.130Z,2.30
2019-03-05T02:26:04.878Z,2.47
2019-03-05T02:28:48.229Z,2.57
2019-03-05T02:31:27.686Z,2.63
2019-03-05T02:34:09.331Z,2.80
2019-03-05T02:36:52.942Z,3.23
2019-03-05T02:39:40.448Z,2.77
2019-03-05T02:43:19.071Z,2.90
2019-03-05T02:46:01.166Z,3.10
2019-03-05T02:48:48.406Z,2.97
2019-03-05T02:51:29.439Z,3.20
2019-03-05T02:54:13.699Z,3.07
2019-03-05T02:57:03.978Z,3.17
2019-03-05T02:59:33.711Z,3.30
2019-03-05T03:02:08.516Z,3.50
2019-03-05T03:04:40.908Z,2.90
2019-03-05T03:07:10.466Z,2.60
2019-03-05T03:10:18.810Z,2.93
2019-03-05T03:12:48.347Z,3.27
2019-03-05T03:15:19.749Z,3.70
2019-03-05T03:17:49.715Z,3.63
2019-03-05T03:20:20.241Z,3.20
2019-03-05T03:22:49.787Z,3.77
2019-03-05T03:25:20.643Z,3.80
2019-03-05T03:27:50.195Z,3.50
2019-03-05T03:30:22.584Z,3.47
2019-03-05T03:32:52.151Z,3.40
2019-03-05T03:35:21.844Z,4.37
2019-03-05T03:37:51.383Z,3.40
2019-03-05T03:40:22.012Z,3.47
2019-03-05T03:42:51.963Z,3.83
2019-03-05T03:45:24.579Z,3.63
2019-03-05T03:47:54.134Z,3.40
2019-03-05T03:50:23.721Z,3.40
2019-03-05T03:52:53.293Z,2.83
2019-03-05T03:55:22.897Z,3.40
2019-03-05T03:57:52.440Z,3.30
2019-03-05T04:00:23.175Z,2.90
2019-03-05T04:02:53.620Z,3.03
2019-03-05T04:05:23.047Z,3.27
2019-03-05T04:07:52.592Z,2.90
2019-03-05T04:10:23.619Z,2.80
2019-03-05T04:12:53.884Z,3.23
2019-03-05T04:15:23.749Z,2.70
2019-03-05T04:17:53.458Z,2.97
2019-03-05T04:20:28.634Z,2.60
2019-03-05T04:22:58.270Z,2.50
2019-03-05T04:25:27.881Z,2.77
2019-03-05T04:27:57.494Z,4.40
2019-03-05T04:30:27.108Z,3.03
2019-03-05T04:32:57.963Z,3.20
2019-03-05T04:35:27.591Z,2.63
2019-03-05T04:37:57.218Z,2.50
2019-03-05T04:40:26.821Z,3.30
2019-03-05T04:42:56.462Z,3.23
2019-03-05T04:45:32.953Z,3.20
2019-03-05T04:48:03.850Z,3.90
2019-03-05T04:50:39.730Z,3.70
2019-03-05T04:53:09.349Z,4.10
2019-03-05T04:55:39.062Z,4.10
2019-03-05T04:58:08.697Z,4.80
2019-03-05T05:00:38.344Z,4.03
2019-03-05T05:03:07.960Z,4.87
2019-03-05T05:05:37.634Z,4.77
2019-03-05T05:08:07.310Z,4.50
2019-03-05T05:10:36.991Z,4.37
2019-03-05T05:13:06.586Z,5.00
2019-03-05T05:15:36.233Z,5.10
2019-03-05T05:18:05.885Z,5.03
2019-03-05T05:20:35.558Z,5.90
2019-03-05T05:23:05.261Z,5.27
2019-03-05T05:25:34.897Z,4.47
2019-03-05T05:28:04.550Z,5.47
2019-03-05T05:30:35.722Z,4.40
2019-03-05T05:33:05.559Z,4.97
2019-03-05T05:35:35.217Z,5.60
2019-03-05T05:38:04.927Z,5.67
2019-03-05T05:40:36.511Z,6.23
2019-03-05T05:43:09.038Z,5.67
2019-03-05T05:45:42.657Z,6.10
2019-03-05T05:48:12.325Z,5.50
2019-03-05T05:50:41.967Z,5.33
2019-03-05T05:53:11.671Z,5.70
2019-03-05T05:55:41.321Z,5.40
2019-03-05T05:58:11.057Z,5.97
2019-03-05T06:00:44.277Z,6.00
2019-03-05T06:03:14.265Z,5.37
2019-03-05T06:05:43.886Z,6.03
2019-03-05T06:08:14.834Z,6.07
2019-03-05T06:10:44.457Z,6.03
2019-03-05T06:13:14.075Z,6.77
2019-03-05T06:15:43.735Z,6.10
2019-03-05T06:18:13.483Z,6.37
2019-03-05T06:20:43.068Z,6.57
2019-03-05T06:23:12.694Z,6.67
2019-03-05T06:25:42.354Z,6.20
2019-03-05T06:28:11.962Z,6.53
2019-03-05T06:30:41.647Z,6.70
2019-03-05T06:33:11.291Z,5.60
2019-03-05T06:35:40.919Z,7.20
2019-03-05T06:38:10.588Z,7.37
2019-03-05T06:40:40.238Z,6.07
2019-03-05T06:43:09.924Z,7.03
2019-03-05T06:45:40.836Z,7.13
2019-03-05T06:48:10.445Z,6.53
2019-03-05T06:50:41.422Z,6.40
2019-03-05T06:54:40.554Z,6.83
2019-03-05T06:57:10.221Z,6.40
2019-03-05T06:59:42.326Z,6.73
2019-03-05T07:02:11.926Z,6.83
2019-03-05T07:04:41.550Z,6.57
2019-03-05T07:07:12.462Z,6.70
2019-03-05T07:10:56.967Z,6.33
2019-03-05T07:13:24.612Z,6.30
2019-03-05T07:16:03.445Z,6.50
2019-03-05T07:18:38.595Z,6.93
2019-03-05T07:21:29.801Z,6.20
2019-03-05T07:24:09.719Z,6.40
2019-03-05T07:26:39.417Z,5.40
2019-03-05T07:29:09.069Z,6.17
2019-03-05T07:31:38.754Z,5.77
2019-03-05T07:34:13.665Z,6.37
2019-03-05T07:36:45.207Z,6.00
2019-03-05T07:39:14.421Z,5.17
2019-03-05T07:41:45.348Z,6.60
2019-03-05T07:44:14.970Z,6.37
2019-03-05T07:46:44.672Z,5.87
2019-03-05T07:49:14.277Z,5.43
2019-03-05T07:51:45.229Z,5.50
2019-03-05T07:54:14.836Z,6.20
2019-03-05T07:56:44.451Z,6.70
2019-03-05T07:59:15.399Z,5.67
2019-03-05T08:01:45.038Z,5.80
2019-03-05T08:04:14.764Z,5.67
2019-03-05T08:06:44.391Z,5.67
2019-03-05T08:09:31.047Z,4.90
2019-03-05T08:13:11.997Z,4.60
2019-03-05T08:16:02.047Z,4.80
2019-03-05T08:18:23.792Z,5.37
2019-03-05T08:20:53.397Z,5.40
2019-03-05T08:23:23.013Z,4.90
2019-03-05T08:25:52.679Z,5.33
2019-03-05T08:28:22.328Z,5.33
2019-03-05T08:30:51.947Z,5.37
2019-03-05T08:33:21.574Z,5.33
2019-03-05T08:35:52.423Z,4.67
2019-03-05T08:38:22.081Z,5.33
2019-03-05T08:40:51.730Z,4.70
2019-03-05T08:43:22.654Z,4.40
2019-03-05T08:45:52.267Z,4.97
2019-03-05T08:48:21.884Z,4.97
2019-03-05T08:50:51.527Z,4.57
2019-03-05T08:53:21.170Z,5.10
2019-03-05T08:55:50.805Z,5.60
2019-03-05T08:58:21.687Z,5.00
2019-03-05T09:00:51.289Z,5.03
2019-03-05T09:03:20.920Z,5.23
2019-03-05T09:05:50.627Z,5.10
2019-03-05T09:08:20.228Z,5.40
2019-03-05T09:10:49.975Z,4.83
2019-03-05T09:13:19.594Z,5.60
2019-03-05T09:15:51.618Z,5.13
2019-03-05T09:18:21.262Z,5.63
2019-03-05T09:20:50.886Z,5.70
2019-03-05T09:23:21.748Z,5.60
2019-03-05T09:25:51.437Z,5.80
2019-03-05T09:28:21.046Z,6.70
2019-03-05T09:30:50.694Z,5.37
2019-03-05T09:33:20.304Z,4.87
2019-03-05T09:35:49.941Z,5.93
2019-03-05T09:38:20.767Z,5.50
2019-03-05T09:40:50.457Z,5.10
2019-03-05T09:43:20.080Z,4.47
2019-03-05T09:45:52.641Z,3.93
2019-03-05T09:48:23.452Z,3.97
2019-03-05T09:50:54.267Z,4.40
2019-03-05T09:53:23.941Z,4.43
2019-03-05T09:55:54.784Z,3.40
2019-03-05T09:58:24.403Z,3.80
2019-03-05T10:00:54.009Z,3.70
2019-03-05T10:03:24.894Z,3.60
2019-03-05T10:05:54.521Z,3.30
2019-03-05T10:08:31.986Z,3.50
2019-03-05T10:10:55.047Z,3.50
2019-03-05T10:13:24.743Z,3.57
2019-03-05T10:15:54.396Z,4.30
2019-03-05T10:18:23.998Z,3.63
2019-03-05T10:20:53.628Z,3.60
2019-03-05T10:23:23.242Z,4.10
2019-03-05T10:25:52.904Z,4.60
2019-03-05T10:28:22.550Z,6.70
2019-03-05T10:30:52.175Z,4.33
2019-03-05T10:33:21.795Z,7.93
2019-03-05T10:35:51.438Z,4.83
2019-03-05T10:38:22.827Z,5.13
2019-03-05T10:40:52.777Z,5.20
2019-03-05T10:43:22.481Z,5.10
2019-03-05T10:45:53.433Z,5.23
2019-03-05T10:48:23.509Z,3.50
2019-03-05T10:50:53.165Z,2.93
2019-03-05T10:53:22.790Z,2.83
2019-03-05T10:55:52.409Z,2.90
2019-03-05T10:58:33.329Z,3.00
2019-03-05T11:00:54.238Z,2.40
2019-03-05T11:03:23.914Z,2.50
2019-03-05T11:05:53.529Z,2.67
2019-03-05T11:08:25.998Z,2.90
2019-03-05T11:10:55.647Z,2.43
2019-03-05T11:13:25.632Z,3.23
2019-03-05T11:15:56.353Z,2.60
2019-03-05T11:18:29.858Z,2.83
2019-03-05T11:20:58.146Z,2.70
2019-03-05T11:23:27.866Z,2.93
2019-03-05T11:25:57.481Z,2.37
2019-03-05T11:28:27.124Z,2.33
2019-03-05T11:30:56.810Z,2.80
2019-03-05T11:33:26.424Z,2.30
2019-03-05T11:35:57.278Z,2.80
2019-03-05T11:38:30.646Z,2.93
2019-03-05T11:41:00.343Z,2.93
2019-03-05T11:43:31.302Z,2.30
2019-03-05T11:46:00.900Z,2.80
2019-03-05T11:48:30.497Z,2.37
2019-03-05T11:51:00.167Z,2.80
2019-03-05T11:53:29.810Z,2.40
2019-03-05T11:55:59.520Z,3.10
2019-03-05T11:58:31.573Z,3.27
2019-03-05T12:01:04.370Z,2.20
2019-03-05T12:03:34.092Z,4.83
2019-03-05T12:06:03.759Z,2.10
2019-03-05T12:08:33.363Z,2.27
2019-03-05T12:11:02.998Z,2.87
2019-03-05T12:13:33.854Z,1.87
2019-03-05T12:16:08.090Z,2.23
2019-03-05T12:18:37.695Z,2.23
2019-03-05T12:21:07.363Z,2.30
2019-03-05T12:23:36.956Z,2.33
2019-03-05T12:26:06.562Z,2.13
2019-03-05T12:28:36.195Z,2.80
2019-03-05T12:31:05.804Z,2.40
2019-03-05T12:33:36.685Z,2.30
2019-03-05T12:36:08.811Z,2.37
2019-03-05T12:38:38.558Z,2.60
2019-03-05T12:41:08.159Z,3.07
2019-03-05T12:43:37.806Z,2.97
2019-03-05T12:46:08.686Z,3.00
2019-03-05T12:48:40.417Z,2.97
2019-03-05T12:51:09.370Z,2.57
2019-03-05T12:53:39.029Z,2.00
2019-03-05T12:56:08.660Z,2.47
2019-03-05T12:58:38.334Z,2.90
2019-03-05T13:01:09.290Z,2.87
2019-03-05T13:03:38.934Z,3.80
2019-03-05T13:06:08.638Z,2.60
2019-03-05T13:08:38.271Z,2.17
2019-03-05T13:11:09.388Z,23.07
2019-03-05T13:13:37.711Z,7.37
2019-03-05T13:16:08.623Z,20.70
2019-03-05T13:18:38.497Z,8.87
2019-03-05T13:21:08.799Z,8.93
2019-03-05T13:23:37.802Z,6.13
2019-03-05T13:26:08.855Z,3.47
2019-03-05T13:28:40.552Z,3.47
2019-03-05T13:31:06.695Z,4.33
2019-03-05T13:33:38.025Z,3.30
2019-03-05T13:36:12.084Z,3.20
2019-03-05T13:38:35.686Z,2.67
2019-03-05T13:41:05.350Z,3.00
2019-03-05T13:43:35.722Z,3.43
2019-03-05T13:46:06.286Z,2.70
2019-03-05T13:49:25.290Z,2.43
2019-03-05T13:52:17.755Z,2.43
2019-03-05T13:55:29.042Z,2.97
2019-03-05T14:00:10.828Z,3.00
2019-03-05T14:02:53.128Z,3.20
2019-03-05T14:07:40.604Z,3.17
2019-03-05T14:10:10.237Z,8.67
2019-03-05T14:12:39.867Z,4.00
2019-03-05T14:15:10.706Z,7.63
2019-03-05T14:17:42.693Z,4.17
2019-03-05T14:20:14.906Z,3.63
2019-03-05T14:22:44.587Z,3.97
2019-03-05T14:25:14.570Z,3.83
2019-03-05T14:27:44.210Z,4.10
2019-03-05T14:30:20.843Z,2.10
2019-03-05T14:32:48.635Z,2.40
2019-03-05T14:35:21.586Z,2.00
2019-03-05T14:37:51.227Z,1.83
2019-03-05T14:40:25.571Z,2.10
2019-03-05T14:42:55.217Z,3.90
2019-03-05T14:45:50.009Z,2.47
2019-03-05T14:48:19.879Z,2.30
2019-03-05T14:50:50.770Z,2.73
2019-03-05T14:53:20.472Z,2.90
2019-03-05T14:55:54.267Z,2.97
2019-03-05T14:58:21.087Z,3.10
2019-03-05T15:00:50.788Z,3.07
2019-03-05T15:03:20.418Z,3.20
2019-03-05T15:05:50.093Z,3.33
2019-03-05T15:08:19.833Z,9.37
2019-03-05T15:10:50.968Z,18.93
2019-03-05T15:13:22.104Z,3.27
2019-03-05T15:15:51.754Z,4.03
2019-03-05T15:18:21.404Z,4.80
2019-03-05T15:20:51.071Z,4.47
2019-03-05T15:23:20.735Z,5.73
2019-03-05T15:25:52.901Z,4.63
2019-03-05T15:28:22.596Z,4.17
2019-03-05T15:30:52.226Z,4.30
2019-03-05T15:33:21.896Z,3.20
2019-03-05T15:35:51.578Z,2.80
2019-03-05T15:38:22.415Z,3.20
2019-03-05T15:40:52.056Z,3.27
2019-03-05T15:43:21.729Z,2.50
2019-03-05T15:45:52.728Z,2.90
2019-03-05T15:48:22.471Z,3.00
2019-03-05T15:50:52.114Z,4.07
2019-03-05T15:53:21.798Z,5.77
2019-03-05T15:55:51.498Z,4.93
2019-03-05T15:58:22.454Z,4.10
2019-03-05T16:00:53.389Z,4.50
2019-03-05T16:03:23.054Z,4.80
2019-03-05T16:05:53.933Z,6.03
2019-03-05T16:08:25.196Z,4.97
2019-03-05T16:10:54.682Z,4.63
2019-03-05T16:13:22.659Z,13.67
2019-03-05T16:15:52.308Z,5.60
2019-03-05T16:18:21.954Z,5.40
2019-03-05T16:20:52.864Z,7.03
2019-03-05T16:23:22.582Z,6.13
2019-03-05T16:25:52.270Z,7.27
2019-03-05T16:28:21.973Z,7.03
2019-03-05T16:31:29.634Z,7.83
2019-03-05T16:34:12.996Z,7.77
2019-03-05T16:38:47.110Z,8.00
2019-03-05T16:41:22.069Z,9.33
2019-03-05T16:44:00.963Z,8.90
2019-03-05T16:46:38.650Z,7.37
2019-03-05T16:49:13.718Z,8.80
2019-03-05T16:51:53.100Z,11.73
2019-03-05T16:54:29.070Z,10.80
2019-03-05T16:57:06.182Z,11.37
2019-03-05T16:59:44.777Z,25.40
2019-03-05T17:02:22.859Z,14.97
2019-03-05T17:04:58.768Z,11.33
2019-03-05T17:08:35.866Z,11.40
2019-03-05T17:11:10.847Z,18.93
2019-03-05T17:13:40.491Z,9.23
2019-03-05T17:16:10.381Z,7.30
2019-03-05T17:18:40.033Z,7.43
2019-03-05T17:21:11.027Z,8.03
2019-03-05T17:23:40.649Z,9.07
2019-03-05T17:26:10.307Z,11.57
2019-03-05T17:28:40.025Z,9.87
2019-03-05T17:31:10.991Z,12.50
2019-03-05T17:33:40.642Z,13.90
2019-03-05T17:36:10.307Z,11.63
2019-03-05T17:38:40.507Z,10.80
2019-03-05T17:41:10.215Z,14.67
2019-03-05T17:43:39.910Z,13.60
2019-03-05T17:46:10.864Z,14.13
2019-03-05T17:48:41.825Z,19.93
2019-03-05T17:51:11.831Z,15.73
2019-03-05T17:53:42.943Z,12.43
2019-03-05T17:56:12.642Z,16.03
2019-03-05T17:58:43.860Z,18.40
2019-03-05T18:01:13.585Z,19.27
2019-03-05T18:03:43.399Z,19.27
2019-03-05T18:07:45.039Z,19.17
2019-03-05T18:10:14.712Z,19.80
2019-03-05T18:12:44.407Z,18.17
2019-03-05T18:15:15.336Z,16.47
2019-03-05T18:17:45.002Z,15.50
2019-03-05T18:20:15.997Z,19.67
2019-03-05T18:22:45.742Z,13.90
2019-03-05T18:25:15.427Z,14.33
2019-03-05T18:27:45.136Z,16.47
2019-03-05T18:30:16.090Z,13.90
2019-03-05T18:32:48.269Z,15.13
2019-03-05T18:35:17.918Z,15.60
2019-03-05T18:37:47.699Z,16.30
2019-03-05T18:40:17.434Z,17.03
2019-03-05T18:42:47.115Z,19.40
2019-03-05T18:45:18.755Z,22.80
2019-03-05T18:47:48.546Z,22.47
2019-03-05T18:50:19.014Z,22.63
2019-03-05T18:52:49.658Z,21.13
2019-03-05T18:55:20.031Z,20.20
2019-03-05T18:57:50.906Z,17.47
2019-03-05T19:00:22.566Z,16.97
2019-03-05T19:02:54.173Z,17.17
2019-03-05T19:05:23.989Z,18.33
2019-03-05T19:07:53.634Z,17.90
2019-03-05T19:10:24.440Z,18.97
2019-03-05T19:12:54.117Z,16.13
2019-03-05T19:15:25.094Z,15.20
2019-03-05T19:17:54.788Z,15.13
2019-03-05T19:20:24.422Z,15.43
2019-03-05T19:22:54.068Z,16.83
2019-03-05T19:25:26.732Z,19.43
2019-03-05T19:27:56.406Z,19.97
2019-03-05T19:30:30.526Z,17.87
2019-03-05T19:33:00.155Z,17.33
2019-03-05T19:35:29.833Z,19.07
2019-03-05T19:37:59.473Z,19.07
2019-03-05T19:40:31.370Z,20.00
2019-03-05T19:43:00.973Z,21.30
2019-03-05T19:45:33.092Z,27.07
2019-03-05T19:48:03.017Z,29.50
2019-03-05T19:50:34.041Z,32.50
2019-03-05T19:53:03.707Z,24.30
2019-03-05T19:55:34.540Z,24.90
2019-03-05T19:58:09.866Z,22.47
2019-03-05T20:00:45.750Z,18.53
2019-03-05T20:03:15.445Z,18.93
2019-03-05T20:05:45.057Z,21.53
2019-03-05T20:08:14.718Z,20.80
2019-03-05T20:10:44.751Z,19.83
2019-03-05T20:13:15.687Z,21.13
2019-03-05T20:15:46.810Z,23.60
2019-03-05T20:18:16.490Z,21.97
2019-03-05T20:20:46.202Z,21.70
2019-03-05T20:23:15.867Z,23.57
2019-03-05T20:25:45.502Z,23.33
2019-03-05T20:28:15.111Z,22.27
2019-03-05T20:30:44.774Z,23.90
2019-03-05T20:33:15.693Z,21.23
2019-03-05T20:35:46.656Z,22.20
2019-03-05T20:38:16.316Z,19.93
2019-03-05T20:40:47.401Z,20.27
2019-03-05T20:43:17.621Z,18.70
2019-03-05T20:45:47.424Z,18.93
2019-03-05T20:48:17.138Z,16.93
2019-03-05T20:50:48.170Z,19.57
2019-03-05T20:53:17.930Z,20.83
2019-03-05T20:55:47.664Z,22.07
2019-03-05T20:58:17.347Z,21.70
2019-03-05T21:00:48.444Z,21.53
2019-03-05T21:03:18.097Z,24.10
2019-03-05T21:05:47.799Z,23.17
2019-03-05T21:08:17.644Z,24.20
2019-03-05T21:10:51.128Z,23.50
2019-03-05T21:13:18.955Z,22.20
2019-03-05T21:15:48.666Z,22.73
2019-03-05T21:18:19.517Z,24.00
2019-03-05T21:20:48.110Z,20.63
2019-03-05T21:23:17.886Z,19.77
2019-03-05T21:25:47.521Z,22.00
2019-03-05T21:28:17.192Z,18.00
2019-03-05T21:30:46.911Z,19.67
2019-03-05T21:33:16.540Z,17.53
2019-03-05T21:35:47.541Z,18.73
2019-03-05T21:38:17.170Z,18.40
2019-03-05T21:40:46.837Z,16.77
2019-03-05T21:43:16.481Z,15.87
2019-03-05T21:45:47.413Z,16.33
2019-03-05T21:48:17.050Z,15.07
2019-03-05T21:50:47.901Z,15.17
2019-03-05T21:53:17.639Z,14.87
2019-03-05T21:55:48.606Z,15.90
2019-03-05T21:58:18.253Z,17.07
2019-03-05T22:00:47.871Z,15.77
2019-03-05T22:03:17.571Z,13.33
2019-03-05T22:05:47.211Z,12.17
2019-03-05T22:08:16.845Z,12.17
2019-03-05T22:10:51.504Z,10.67
2019-03-05T22:13:22.302Z,11.37
2019-03-05T22:15:51.911Z,13.40
2019-03-05T22:18:21.577Z,12.67
2019-03-05T22:20:51.202Z,11.97
2019-03-05T22:23:20.932Z,12.57
2019-03-05T22:25:51.811Z,11.67
2019-03-05T22:28:21.437Z,11.87
2019-03-05T22:30:53.614Z,11.90
2019-03-05T22:33:23.240Z,11.87
2019-03-05T22:35:52.938Z,11.27
2019-03-05T22:38:22.573Z,12.30
2019-03-05T22:40:52.204Z,12.47
2019-03-05T22:43:21.830Z,10.53
2019-03-05T22:45:51.501Z,12.47
2019-03-05T22:48:22.373Z,10.20
2019-03-05T22:50:51.974Z,10.20
2019-03-05T22:53:21.606Z,9.63
2019-03-05T22:55:51.463Z,10.20
2019-03-05T22:58:21.106Z,9.17
2019-03-05T23:00:57.526Z,9.90
2019-03-05T23:03:29.040Z,9.77
2019-03-05T23:06:01.555Z,10.63
2019-03-05T23:08:31.191Z,10.87
2019-03-05T23:11:00.818Z,10.30
2019-03-05T23:13:30.445Z,9.87
2019-03-05T23:16:00.096Z,9.93
2019-03-05T23:18:29.730Z,9.20
2019-03-05T23:20:59.372Z,10.37
2019-03-05T23:23:29.262Z,9.83
2019-03-05T23:25:58.903Z,9.37
2019-03-05T23:28:28.539Z,9.70
2019-03-05T23:30:58.194Z,10.50
2019-03-05T23:33:27.880Z,10.73
2019-03-05T23:35:57.505Z,8.87
2019-03-05T23:38:27.121Z,8.80
2019-03-05T23:40:56.768Z,8.43
2019-03-05T23:43:26.459Z,7.13
2019-03-05T23:45:56.126Z,8.20
2019-03-05T23:48:25.758Z,7.70
2019-03-05T23:50:55.390Z,6.13
2019-03-05T23:53:25.074Z,6.23
2019-03-05T23:55:54.727Z,6.13
2019-03-05T23:58:24.377Z,6.20
